Terminal Aerodrome Forecast
Issued by NWS

Home | Current Version | Previous Version | Text Only | Print | Product List | Glossary On
Versions: 1 2 3 4 5 6 7 8 9 10 11 12
183
FTUS44 KSJT 252320
TAFBBD
TAF
KBBD 252320Z 2600/2624 11005KT P6SM SKC
     FM260400 11006KT P6SM OVC025
     FM260600 10003KT 4SM BR OVC007
     FM261300 12005KT P6SM OVC020
     FM261700 13008KT P6SM OVC050
     FM262000 13008KT P6SM VCTS BKN030CB OVC050
      AMD NOT SKED=

USA.gov is the U.S. government's official web portal to all federal, state and local government web resources and services.